createdAt,value
2023-02-22T00:01:51.107Z,4.17
2023-02-22T00:04:53.866Z,3.60
2023-02-22T00:08:00.273Z,4.43
2023-02-22T00:11:10.549Z,4.20
2023-02-22T00:14:12.659Z,5.17
2023-02-22T00:17:16.265Z,6.20
2023-02-22T00:20:19.237Z,4.77
2023-02-22T00:23:21.914Z,5.57
2023-02-22T00:26:23.624Z,5.37
2023-02-22T00:29:25.354Z,5.30
2023-02-22T00:32:27.033Z,8.60
2023-02-22T00:35:29.948Z,7.40
2023-02-22T00:38:32.309Z,7.30
2023-02-22T00:41:34.179Z,6.93
2023-02-22T00:44:37.708Z,7.60
2023-02-22T00:47:39.411Z,6.90
2023-02-22T00:50:41.778Z,7.63
2023-02-22T00:53:43.374Z,7.27
2023-02-22T00:56:44.944Z,7.37
2023-02-22T00:59:46.732Z,7.03
2023-02-22T01:02:51.288Z,7.43
2023-02-22T01:05:53.388Z,6.80
2023-02-22T01:08:55.003Z,7.30
2023-02-22T01:11:58.947Z,7.30
2023-02-22T01:15:00.650Z,7.30
2023-02-22T01:18:02.638Z,8.57
2023-02-22T01:21:04.431Z,7.60
2023-02-22T01:24:06.245Z,6.53
2023-02-22T01:27:08.043Z,7.47
2023-02-22T01:30:12.259Z,7.40
2023-02-22T01:33:15.579Z,7.23
2023-02-22T01:36:19.017Z,7.80
2023-02-22T01:39:21.259Z,7.70
2023-02-22T01:42:24.101Z,8.47
2023-02-22T01:45:34.664Z,10.67
2023-02-22T01:48:42.152Z,10.47
2023-02-22T01:51:48.891Z,9.20
2023-02-22T01:54:55.915Z,9.97
2023-02-22T01:57:58.527Z,7.73
2023-02-22T02:01:01.467Z,7.73
2023-02-22T02:04:06.054Z,8.50
2023-02-22T02:07:08.237Z,7.70
2023-02-22T02:10:14.408Z,8.87
2023-02-22T02:13:16.424Z,7.60
2023-02-22T02:16:18.140Z,7.13
2023-02-22T02:19:20.344Z,7.80
2023-02-22T02:22:42.745Z,8.23
2023-02-22T02:25:55.022Z,8.83
2023-02-22T02:28:56.824Z,8.60
2023-02-22T02:31:58.487Z,9.27
2023-02-22T02:35:15.350Z,8.83
2023-02-22T02:38:28.859Z,7.07
2023-02-22T02:41:33.755Z,7.30
2023-02-22T02:44:46.115Z,8.03
2023-02-22T02:47:53.502Z,7.67
2023-02-22T02:50:56.692Z,8.03
2023-02-22T02:53:59.074Z,8.10
2023-02-22T02:57:00.750Z,8.53
2023-02-22T03:00:02.452Z,9.43
2023-02-22T03:03:22.936Z,7.67
2023-02-22T03:06:50.770Z,8.17
2023-02-22T03:10:13.269Z,7.07
2023-02-22T03:13:33.935Z,6.97
2023-02-22T03:16:42.134Z,8.27
2023-02-22T03:20:04.983Z,8.37
2023-02-22T03:23:06.618Z,7.57
2023-02-22T03:26:12.156Z,7.90
2023-02-22T03:29:17.947Z,7.07
2023-02-22T03:32:26.039Z,7.43
2023-02-22T03:35:35.128Z,7.77
2023-02-22T03:38:37.693Z,6.77
2023-02-22T03:41:40.444Z,9.07
2023-02-22T03:44:42.848Z,7.90
2023-02-22T03:47:50.319Z,6.53
2023-02-22T03:50:52.481Z,6.53
2023-02-22T03:53:56.945Z,6.73
2023-02-22T03:57:12.276Z,7.10
2023-02-22T04:00:20.052Z,7.43
2023-02-22T04:03:22.479Z,7.13
2023-02-22T04:06:25.026Z,8.10
2023-02-22T04:09:27.393Z,10.23
2023-02-22T04:12:30.404Z,8.57
2023-02-22T04:15:37.234Z,6.83
2023-02-22T04:18:40.934Z,7.33
2023-02-22T04:21:42.763Z,7.17
2023-02-22T04:24:51.781Z,8.67
2023-02-22T04:27:53.538Z,7.83
2023-02-22T04:31:03.861Z,8.97
2023-02-22T04:34:06.458Z,10.20
2023-02-22T04:37:12.381Z,10.03
2023-02-22T04:40:14.094Z,9.10
2023-02-22T04:43:16.092Z,9.37
2023-02-22T04:46:17.953Z,9.83
2023-02-22T04:49:19.894Z,11.47
2023-02-22T04:52:22.708Z,10.87
2023-02-22T04:55:24.714Z,9.13
2023-02-22T04:58:26.398Z,8.83
2023-02-22T05:01:33.656Z,11.33
2023-02-22T05:04:38.088Z,10.10
2023-02-22T05:07:39.739Z,8.37
2023-02-22T05:10:41.299Z,9.20
2023-02-22T05:13:43.822Z,10.77
2023-02-22T05:16:45.490Z,10.57
2023-02-22T05:19:48.426Z,9.77
2023-02-22T05:22:52.078Z,8.97
2023-02-22T05:25:56.221Z,10.90
2023-02-22T05:28:57.860Z,9.20
2023-02-22T05:31:59.667Z,10.03
2023-02-22T05:35:01.377Z,12.23
2023-02-22T05:38:03.778Z,10.40
2023-02-22T05:41:05.475Z,11.27
2023-02-22T05:44:07.083Z,11.67
2023-02-22T05:47:08.643Z,13.00
2023-02-22T05:50:10.578Z,13.23
2023-02-22T05:53:12.269Z,13.37
2023-02-22T05:56:13.946Z,16.43
2023-02-22T05:59:15.549Z,15.80
2023-02-22T06:02:17.185Z,16.30
2023-02-22T06:05:18.904Z,18.47
2023-02-22T06:08:20.526Z,17.67
2023-02-22T06:11:22.238Z,18.33
2023-02-22T06:14:24.489Z,17.30
2023-02-22T06:17:26.118Z,18.17
2023-02-22T06:20:28.664Z,21.60
2023-02-22T06:23:30.303Z,20.37
2023-02-22T06:26:31.887Z,19.33
2023-02-22T06:29:33.603Z,18.33
2023-02-22T06:32:35.190Z,18.17
2023-02-22T06:35:36.799Z,18.23
2023-02-22T06:38:38.448Z,18.30
2023-02-22T06:41:40.429Z,21.30
2023-02-22T06:44:42.133Z,19.43
2023-02-22T06:47:43.886Z,21.63
2023-02-22T06:50:45.532Z,25.03
2023-02-22T06:53:47.200Z,29.30
2023-02-22T06:56:49.595Z,20.77
2023-02-22T06:59:51.242Z,16.50
2023-02-22T07:02:54.917Z,16.67
2023-02-22T07:05:56.547Z,8.60
2023-02-22T07:08:58.108Z,5.33
2023-02-22T07:11:59.786Z,11.67
2023-02-22T07:15:01.545Z,5.73
2023-02-22T07:18:03.255Z,3.27
2023-02-22T07:21:05.741Z,4.37
2023-02-22T07:24:07.439Z,4.47
2023-02-22T07:27:09.124Z,2.90
2023-02-22T07:30:25.092Z,2.60
2023-02-22T07:33:26.914Z,9.80
2023-02-22T07:36:28.560Z,3.47
2023-02-22T07:39:30.242Z,3.37
2023-02-22T07:42:33.147Z,3.67
2023-02-22T07:45:35.690Z,3.87
2023-02-22T07:48:37.356Z,3.83
2023-02-22T07:51:38.990Z,3.70
2023-02-22T07:54:40.644Z,3.80
2023-02-22T07:57:42.872Z,3.07
2023-02-22T08:00:44.532Z,3.90
2023-02-22T08:03:47.619Z,3.57
2023-02-22T08:06:50.276Z,3.80
2023-02-22T08:09:51.918Z,3.77
2023-02-22T08:12:54.095Z,2.87
2023-02-22T08:15:56.181Z,4.07
2023-02-22T08:18:57.867Z,3.77
2023-02-22T08:21:59.530Z,3.97
2023-02-22T08:25:01.168Z,4.57
2023-02-22T08:28:05.053Z,3.70
2023-02-22T08:31:08.856Z,3.80
2023-02-22T08:34:10.523Z,3.60
2023-02-22T08:37:12.165Z,3.70
2023-02-22T08:40:15.032Z,2.90
2023-02-22T08:43:17.686Z,3.70
2023-02-22T08:46:19.268Z,3.50
2023-02-22T08:49:21.310Z,4.30
2023-02-22T08:52:22.958Z,3.87
2023-02-22T08:55:25.409Z,3.60
2023-02-22T08:58:27.061Z,3.60
2023-02-22T09:01:33.325Z,3.70
2023-02-22T09:04:35.317Z,3.80
2023-02-22T09:07:36.910Z,3.60
2023-02-22T09:10:38.563Z,4.17
2023-02-22T09:13:40.322Z,3.50
2023-02-22T09:16:42.920Z,3.23
2023-02-22T09:19:45.476Z,3.50
2023-02-22T09:22:47.683Z,3.30
2023-02-22T09:25:49.765Z,3.47
2023-02-22T09:28:51.466Z,4.10
2023-02-22T09:31:54.860Z,3.27
2023-02-22T09:34:56.607Z,3.00
2023-02-22T09:37:59.338Z,3.17
2023-02-22T09:41:21.306Z,4.40
2023-02-22T09:44:29.140Z,3.67
2023-02-22T09:47:39.751Z,4.60
2023-02-22T09:50:42.734Z,3.30
2023-02-22T09:53:45.910Z,3.10
2023-02-22T09:56:48.668Z,3.50
2023-02-22T10:00:13.305Z,3.97
2023-02-22T10:03:32.867Z,4.50
2023-02-22T10:06:35.424Z,4.70
2023-02-22T10:09:38.724Z,3.90
2023-02-22T10:12:46.350Z,3.40
2023-02-22T10:15:48.060Z,4.27
2023-02-22T10:18:55.201Z,3.47
2023-02-22T10:22:15.419Z,2.80
2023-02-22T10:25:22.048Z,3.47
2023-02-22T10:28:43.980Z,3.77
2023-02-22T10:31:47.091Z,18.77
2023-02-22T10:34:51.548Z,2.90
2023-02-22T10:38:06.978Z,3.77
2023-02-22T10:41:08.817Z,4.07
2023-02-22T10:44:10.543Z,3.83
2023-02-22T10:47:17.591Z,3.40
2023-02-22T10:50:20.915Z,4.03
2023-02-22T10:53:23.216Z,4.93
2023-02-22T10:56:26.478Z,3.47
2023-02-22T10:59:30.734Z,3.87
2023-02-22T11:02:33.393Z,3.10
2023-02-22T11:05:39.170Z,3.10
2023-02-22T11:08:41.624Z,4.03
2023-02-22T11:11:46.035Z,4.80
2023-02-22T11:14:48.319Z,3.30
2023-02-22T11:17:55.321Z,2.73
2023-02-22T11:21:01.974Z,4.07
2023-02-22T11:24:04.986Z,2.77
2023-02-22T11:27:06.665Z,3.30
2023-02-22T11:30:08.309Z,3.50
2023-02-22T11:33:15.940Z,3.57
2023-02-22T11:36:30.625Z,3.10
2023-02-22T11:39:35.626Z,3.63
2023-02-22T11:42:37.298Z,3.00
2023-02-22T11:45:44.143Z,4.17
2023-02-22T11:49:02.179Z,3.43
2023-02-22T11:52:19.034Z,3.63
2023-02-22T11:55:36.389Z,3.10
2023-02-22T11:58:59.992Z,3.47
2023-02-22T12:02:20.522Z,3.30
2023-02-22T12:05:40.851Z,3.50
2023-02-22T12:08:56.957Z,3.30
2023-02-22T12:12:01.609Z,3.27
2023-02-22T12:15:08.668Z,2.50
2023-02-22T12:18:16.081Z,2.90
2023-02-22T12:21:19.786Z,3.53
2023-02-22T12:24:27.788Z,2.50
2023-02-22T12:27:49.696Z,2.70
2023-02-22T12:31:15.162Z,2.90
2023-02-22T12:34:21.821Z,3.37
2023-02-22T12:37:28.164Z,3.57
2023-02-22T12:40:53.948Z,2.80
2023-02-22T12:43:55.646Z,3.10
2023-02-22T12:46:59.607Z,2.70
2023-02-22T12:50:15.594Z,3.30
2023-02-22T12:53:20.355Z,3.53
2023-02-22T12:56:28.199Z,3.17
2023-02-22T12:59:32.884Z,3.40
2023-02-22T13:02:40.222Z,4.40
2023-02-22T13:05:42.285Z,3.17
2023-02-22T13:08:47.239Z,3.60
2023-02-22T13:11:51.695Z,3.87
2023-02-22T13:14:59.512Z,4.20
2023-02-22T13:18:24.922Z,3.00
2023-02-22T13:21:45.040Z,3.30
2023-02-22T13:24:52.577Z,2.97
2023-02-22T13:27:59.434Z,2.73
2023-02-22T13:31:07.436Z,2.90
2023-02-22T13:34:35.491Z,3.30
2023-02-22T13:37:40.248Z,3.00
2023-02-22T13:40:53.994Z,2.37
2023-02-22T13:44:10.771Z,2.10
2023-02-22T13:47:30.983Z,3.10
2023-02-22T13:50:38.814Z,2.83
2023-02-22T13:53:49.548Z,3.50
2023-02-22T13:56:52.492Z,2.43
2023-02-22T14:00:12.899Z,2.50
2023-02-22T14:03:14.533Z,2.40
2023-02-22T14:06:36.629Z,1.87
2023-02-22T14:09:57.669Z,2.87
2023-02-22T14:13:08.632Z,2.43
2023-02-22T14:16:10.250Z,3.13
2023-02-22T14:19:14.799Z,2.60
2023-02-22T14:22:25.609Z,2.57
2023-02-22T14:25:30.410Z,2.43
2023-02-22T14:28:43.103Z,2.93
2023-02-22T14:31:44.805Z,3.10
2023-02-22T14:35:00.833Z,2.20
2023-02-22T14:38:02.936Z,3.07
2023-02-22T14:41:05.054Z,4.27
2023-02-22T14:44:07.413Z,3.30
2023-02-22T14:47:14.834Z,3.43
2023-02-22T14:50:23.249Z,3.43
2023-02-22T14:53:40.552Z,3.57
2023-02-22T14:56:55.711Z,3.70
2023-02-22T14:59:57.346Z,3.03
2023-02-22T15:02:59.973Z,3.50
2023-02-22T15:06:15.018Z,5.70
2023-02-22T15:09:29.677Z,3.80
2023-02-22T15:12:33.646Z,4.20
2023-02-22T15:15:47.585Z,3.80
2023-02-22T15:18:53.571Z,3.63
2023-02-22T15:21:56.284Z,3.77
2023-02-22T15:25:02.004Z,4.33
2023-02-22T15:28:04.385Z,6.37
2023-02-22T15:31:16.797Z,4.33
2023-02-22T15:34:24.380Z,5.60
2023-02-22T15:37:28.058Z,6.10
2023-02-22T15:40:33.318Z,6.00
2023-02-22T15:43:35.032Z,5.27
2023-02-22T15:46:37.532Z,5.50
2023-02-22T15:49:39.244Z,4.03
2023-02-22T15:52:46.628Z,7.87
2023-02-22T15:55:49.572Z,12.37
2023-02-22T15:58:51.872Z,12.93
2023-02-22T16:01:53.998Z,11.37
2023-02-22T16:05:15.857Z,12.17
2023-02-22T16:08:52.658Z,16.73
2023-02-22T16:12:09.519Z,12.20
2023-02-22T16:15:15.295Z,15.13
2023-02-22T16:18:31.311Z,16.70
2023-02-22T16:21:49.688Z,15.07
2023-02-22T16:24:52.588Z,17.77
2023-02-22T16:27:57.517Z,15.80
2023-02-22T16:30:59.287Z,13.83
2023-02-22T16:34:02.394Z,13.03
2023-02-22T16:37:04.042Z,27.20
2023-02-22T16:40:13.920Z,35.50
2023-02-22T16:43:17.403Z,44.13
2023-02-22T16:46:19.979Z,54.37
2023-02-22T16:49:23.468Z,30.60
2023-02-22T16:52:25.170Z,31.67
2023-02-22T16:55:26.929Z,29.63
2023-02-22T16:58:29.330Z,35.30
2023-02-22T17:01:35.303Z,34.60
2023-02-22T17:04:37.167Z,39.77
2023-02-22T17:07:40.571Z,40.30
2023-02-22T17:10:42.507Z,41.80
2023-02-22T17:13:45.830Z,41.73
2023-02-22T17:16:47.417Z,39.47
2023-02-22T17:19:49.063Z,45.00
2023-02-22T17:22:51.285Z,38.93
2023-02-22T17:26:03.388Z,29.20
2023-02-22T17:29:05.020Z,31.73
2023-02-22T17:32:07.384Z,25.93
2023-02-22T17:35:09.096Z,26.60
2023-02-22T17:38:10.779Z,32.67
2023-02-22T17:41:12.455Z,26.80
2023-02-22T17:44:14.191Z,37.43
2023-02-22T17:47:16.221Z,38.13
2023-02-22T17:50:18.929Z,33.90
2023-02-22T17:53:25.009Z,22.90
2023-02-22T17:56:26.814Z,17.70
2023-02-22T17:59:28.502Z,17.37
2023-02-22T18:02:30.188Z,20.80
2023-02-22T18:05:33.176Z,16.60
2023-02-22T18:08:34.859Z,19.30
2023-02-22T18:11:37.139Z,15.77
2023-02-22T18:14:38.866Z,19.53
2023-02-22T18:17:40.472Z,13.70
2023-02-22T18:20:43.947Z,15.67
2023-02-22T18:23:45.563Z,13.13
2023-02-22T18:26:54.049Z,14.77
2023-02-22T18:29:56.033Z,14.73
2023-02-22T18:32:57.753Z,15.40
2023-02-22T18:35:59.684Z,12.27
2023-02-22T18:39:01.264Z,11.10
2023-02-22T18:42:02.912Z,13.00
2023-02-22T18:45:05.622Z,21.20
2023-02-22T18:48:07.245Z,11.77
2023-02-22T18:51:10.319Z,17.07
2023-02-22T18:54:12.561Z,20.93
2023-02-22T18:57:14.109Z,17.03
2023-02-22T19:00:17.252Z,17.93
2023-02-22T19:03:18.917Z,20.07
2023-02-22T19:06:22.676Z,10.10
2023-02-22T19:09:24.959Z,9.17
2023-02-22T19:12:27.079Z,7.57
2023-02-22T19:15:28.647Z,11.57
2023-02-22T19:18:30.793Z,10.20
2023-02-22T19:21:32.883Z,11.83
2023-02-22T19:24:39.746Z,12.37
2023-02-22T19:27:44.385Z,12.70
2023-02-22T19:30:46.210Z,16.60
2023-02-22T19:33:50.940Z,14.13
2023-02-22T19:36:52.653Z,13.47
2023-02-22T19:39:54.282Z,14.87
2023-02-22T19:42:56.704Z,15.67
2023-02-22T19:45:58.424Z,14.60
2023-02-22T19:49:01.267Z,13.10
2023-02-22T19:52:03.963Z,10.53
2023-02-22T19:55:14.828Z,10.47
2023-02-22T19:58:16.447Z,11.73
2023-02-22T20:01:24.017Z,11.13
2023-02-22T20:04:25.803Z,8.80
2023-02-22T20:07:27.482Z,10.43
2023-02-22T20:10:29.192Z,7.83
2023-02-22T20:13:31.108Z,10.70
2023-02-22T20:16:33.564Z,10.43
2023-02-22T20:19:37.323Z,9.83
2023-02-22T20:22:40.620Z,11.07
2023-02-22T20:25:42.537Z,10.10
2023-02-22T20:28:44.674Z,10.10
2023-02-22T20:31:52.490Z,7.13
2023-02-22T20:34:54.171Z,6.50
2023-02-22T20:37:55.787Z,7.77
2023-02-22T20:40:57.359Z,8.67
2023-02-22T20:43:59.888Z,9.57
2023-02-22T20:47:03.468Z,9.80
2023-02-22T20:50:05.654Z,7.93
2023-02-22T20:53:07.259Z,9.33
2023-02-22T20:56:15.939Z,9.90
2023-02-22T20:59:18.800Z,8.17
2023-02-22T21:02:20.444Z,11.93
2023-02-22T21:05:22.298Z,11.57
2023-02-22T21:08:23.947Z,9.83
2023-02-22T21:11:27.171Z,8.93
2023-02-22T21:14:30.879Z,9.03
2023-02-22T21:17:32.562Z,8.10
2023-02-22T21:20:35.436Z,8.43
2023-02-22T21:23:37.477Z,8.83
2023-02-22T21:26:39.635Z,8.23
2023-02-22T21:29:41.261Z,9.00
2023-02-22T21:32:42.881Z,10.10
2023-02-22T21:35:47.205Z,9.50
2023-02-22T21:38:53.331Z,11.57
2023-02-22T21:42:00.241Z,8.23
2023-02-22T21:45:02.091Z,9.27
2023-02-22T21:48:03.968Z,7.20
2023-02-22T21:51:13.901Z,8.70
2023-02-22T21:54:16.955Z,7.83
2023-02-22T21:57:18.837Z,7.30
2023-02-22T22:00:29.126Z,9.37
2023-02-22T22:03:30.768Z,8.90
2023-02-22T22:06:34.410Z,7.30
2023-02-22T22:09:41.152Z,7.00
2023-02-22T22:12:46.191Z,7.37
2023-02-22T22:15:47.893Z,9.10
2023-02-22T22:18:49.540Z,9.77
2023-02-22T22:21:53.972Z,8.83
2023-02-22T22:24:55.732Z,9.23
2023-02-22T22:27:57.357Z,7.40
2023-02-22T22:30:59.028Z,5.13
2023-02-22T22:34:00.714Z,6.33
2023-02-22T22:37:03.038Z,5.40
2023-02-22T22:40:05.678Z,6.03
2023-02-22T22:43:07.212Z,7.30
2023-02-22T22:46:09.035Z,5.60
2023-02-22T22:49:12.572Z,5.20
2023-02-22T22:52:15.190Z,4.73
2023-02-22T22:55:16.913Z,5.07
2023-02-22T22:58:18.570Z,6.20
2023-02-22T23:01:26.835Z,5.60
2023-02-22T23:04:29.055Z,5.37
2023-02-22T23:07:30.648Z,6.50
2023-02-22T23:10:33.059Z,6.07
2023-02-22T23:13:34.962Z,6.60
2023-02-22T23:16:36.522Z,5.40
2023-02-22T23:19:38.160Z,5.50
2023-02-22T23:22:47.261Z,6.30
2023-02-22T23:25:50.810Z,5.90
2023-02-22T23:28:53.691Z,7.20
2023-02-22T23:31:55.586Z,7.63
2023-02-22T23:34:57.319Z,7.90
2023-02-22T23:37:58.957Z,7.40
2023-02-22T23:41:01.408Z,6.97
2023-02-22T23:44:03.679Z,8.00
2023-02-22T23:47:05.286Z,8.20
2023-02-22T23:50:13.582Z,8.00
2023-02-22T23:53:15.323Z,8.17
2023-02-22T23:56:21.034Z,7.60
2023-02-22T23:59:23.725Z,6.97
